Time;durP1;ratioP1;P1;durP2;ratioP2;P2;SDS_P1;SDS_P2;PMS_P1;PMS_P2;Temp;Humidity;BMP_temperature;BMP_pressure;BME280_temperature;BME280_humidity;BME280_pressure;Samples;Min_cycle;Max_cycle;Signal;HPM_P1;HPM_P2
2021/07/02 00:02:03;;;;;;;58.23;2.60;;;14.10;75.10;;;;;;5053631;28;20445;-70
2021/07/02 00:04:30;;;;;;;58.40;2.70;;;14.10;75.10;;;;;;5053640;28;20491;-71
2021/07/02 00:06:58;;;;;;;58.47;2.70;;;14.10;75.30;;;;;;5053649;28;20829;-70
2021/07/02 00:09:25;;;;;;;57.97;2.50;;;14.10;75.40;;;;;;5053518;28;20830;-70
2021/07/02 00:11:52;;;;;;;58.60;2.87;;;14.10;78.20;;;;;;5053323;28;20956;-70
2021/07/02 00:14:18;;;;;;;58.20;2.50;;;14.10;77.90;;;;;;5053467;28;20551;-70
2021/07/02 00:16:45;;;;;;;58.07;2.40;;;14.10;78.60;;;;;;5053627;28;20532;-70
2021/07/02 00:19:12;;;;;;;59.10;2.70;;;14.10;78.70;;;;;;5053432;28;20540;-70
2021/07/02 00:21:39;;;;;;;59.53;3.77;;;14.10;80.00;;;;;;5052988;28;20450;-70
2021/07/02 00:24:07;;;;;;;63.00;3.63;;;14.10;79.10;;;;;;5049822;28;21076;-70
2021/07/02 00:26:35;;;;;;;58.27;2.50;;;14.10;79.20;;;;;;5037975;28;20452;-70
2021/07/02 00:29:02;;;;;;;58.27;2.53;;;14.00;80.80;;;;;;5052715;28;20535;-70
2021/07/02 00:31:29;;;;;;;58.07;2.70;;;14.10;81.60;;;;;;5052983;28;20486;-70
2021/07/02 00:33:56;;;;;;;58.03;2.63;;;14.10;81.70;;;;;;5053087;28;20504;-70
2021/07/02 00:36:23;;;;;;;58.27;2.60;;;14.00;80.30;;;;;;5052976;28;20476;-70
2021/07/02 00:38:50;;;;;;;58.33;2.80;;;14.00;82.90;;;;;;5053002;28;21021;-70
2021/07/02 00:41:18;;;;;;;59.10;2.60;;;14.00;81.80;;;;;;5052889;28;20524;-70
2021/07/02 00:43:49;;;;;;;58.27;2.70;;;14.00;82.20;;;;;;5052683;28;20507;-70
2021/07/02 00:46:16;;;;;;;58.37;3.00;;;14.00;82.70;;;;;;5052868;28;20481;-70
2021/07/02 00:48:43;;;;;;;59.00;3.63;;;14.00;84.30;;;;;;5052707;28;20478;-70
2021/07/02 00:51:10;;;;;;;58.20;2.80;;;14.00;82.50;;;;;;5052940;28;20485;-70
2021/07/02 00:57:00;;;;;;;58.17;2.50;;;14.00;82.10;;;;;;5033675;28;21109;-71
2021/07/02 00:59:27;;;;;;;58.20;2.63;;;14.00;82.90;;;;;;5052461;28;20993;-70
2021/07/02 01:01:54;;;;;;;58.37;2.47;;;13.90;83.70;;;;;;5052508;28;20480;-70
2021/07/02 01:04:23;;;;;;;58.27;2.60;;;13.90;85.30;;;;;;5052562;28;20541;-70
2021/07/02 01:06:51;;;;;;;58.40;2.80;;;13.90;83.40;;;;;;5052940;28;20452;-70
2021/07/02 01:09:18;;;;;;;58.37;2.63;;;13.90;84.30;;;;;;5052505;28;20938;-71
2021/07/02 01:11:45;;;;;;;58.57;2.70;;;13.90;84.30;;;;;;5052070;28;20570;-70
2021/07/02 01:14:13;;;;;;;58.53;2.70;;;13.90;83.90;;;;;;5052464;28;20976;-70
2021/07/02 01:16:41;;;;;;;59.23;2.83;;;13.90;83.80;;;;;;5052709;28;20546;-70
2021/07/02 01:19:08;;;;;;;58.23;2.80;;;13.80;83.80;;;;;;5052247;28;20491;-70
2021/07/02 01:21:36;;;;;;;58.07;2.60;;;13.80;84.10;;;;;;5052231;28;20441;-70
2021/07/02 01:24:04;;;;;;;58.43;2.70;;;13.80;84.20;;;;;;5052004;28;20512;-70
2021/07/02 01:26:31;;;;;;;58.57;3.37;;;13.80;83.70;;;;;;5050905;28;20448;-70
2021/07/02 01:28:59;;;;;;;58.27;2.67;;;13.80;85.20;;;;;;5042315;28;20456;-70
2021/07/02 01:31:25;;;;;;;58.17;2.73;;;13.70;85.30;;;;;;5032153;28;20580;-70
2021/07/02 01:33:52;;;;;;;58.23;2.70;;;13.70;86.40;;;;;;5032100;28;20462;-70
2021/07/02 01:36:21;;;;;;;58.90;4.13;;;13.70;86.20;;;;;;5032188;28;20953;-71
2021/07/02 01:38:49;;;;;;;58.17;2.90;;;13.70;89.00;;;;;;5031910;28;20533;-70
2021/07/02 01:41:16;;;;;;;58.17;2.90;;;13.70;88.90;;;;;;5031666;28;20449;-70
2021/07/02 01:43:43;;;;;;;58.10;2.67;;;13.70;87.30;;;;;;5031874;28;20501;-70
2021/07/02 01:46:10;;;;;;;58.87;3.30;;;13.70;87.60;;;;;;5032285;28;20445;-70
2021/07/02 01:48:37;;;;;;;58.13;2.73;;;13.70;88.10;;;;;;5032335;28;20521;-70
2021/07/02 01:51:04;;;;;;;58.47;3.30;;;13.70;87.50;;;;;;5031927;28;21071;-70
2021/07/02 01:53:31;;;;;;;58.47;3.00;;;13.70;87.20;;;;;;5031659;28;20915;-71
2021/07/02 01:56:00;;;;;;;58.30;2.70;;;13.60;86.80;;;;;;5032232;28;20553;-71
2021/07/02 01:58:26;;;;;;;57.97;2.70;;;13.60;88.00;;;;;;5046102;28;20458;-71
2021/07/02 02:00:53;;;;;;;58.57;3.33;;;13.60;89.10;;;;;;5033576;28;20828;-70
2021/07/02 02:03:20;;;;;;;58.20;2.80;;;13.60;89.70;;;;;;5031668;28;20556;-71
2021/07/02 02:05:48;;;;;;;58.17;2.63;;;13.60;90.10;;;;;;5031847;28;20502;-71
2021/07/02 02:08:15;;;;;;;58.33;2.67;;;13.70;90.40;;;;;;5031781;28;20725;-71
2021/07/02 02:10:42;;;;;;;58.27;2.70;;;13.60;90.80;;;;;;5031842;28;20488;-71
2021/07/02 02:13:10;;;;;;;58.53;3.53;;;13.60;89.90;;;;;;5031246;28;20469;-71
2021/07/02 02:15:37;;;;;;;58.07;2.67;;;13.60;89.50;;;;;;5031765;28;20889;-71
2021/07/02 02:18:04;;;;;;;58.17;2.70;;;13.60;89.70;;;;;;5031746;28;20527;-71
2021/07/02 02:20:31;;;;;;;58.10;2.97;;;13.50;88.90;;;;;;5031611;28;20473;-70
2021/07/02 02:22:58;;;;;;;58.17;2.80;;;13.50;90.40;;;;;;5031361;28;20901;-71
2021/07/02 02:25:25;;;;;;;58.17;2.80;;;13.40;90.30;;;;;;5031775;28;20543;-71
2021/07/02 02:27:52;;;;;;;58.07;2.77;;;13.40;90.90;;;;;;5033588;28;20492;-71
2021/07/02 02:30:21;;;;;;;58.27;2.60;;;13.40;90.60;;;;;;5051345;28;20483;-71
2021/07/02 02:32:48;;;;;;;58.37;2.90;;;13.40;91.70;;;;;;5051152;28;20505;-70
2021/07/02 02:35:15;;;;;;;58.33;2.80;;;13.30;90.40;;;;;;5051454;28;20450;-71
2021/07/02 02:37:42;;;;;;;58.33;2.50;;;13.30;90.50;;;;;;5051668;28;20544;-71
2021/07/02 02:40:10;;;;;;;58.40;2.60;;;13.30;90.50;;;;;;5051504;28;20479;-70
2021/07/02 02:42:37;;;;;;;58.33;2.70;;;13.20;90.50;;;;;;5050935;28;20444;-71
2021/07/02 02:45:05;;;;;;;58.30;2.60;;;13.20;89.90;;;;;;5051608;28;20448;-71
2021/07/02 02:47:34;;;;;;;58.37;2.60;;;13.20;90.10;;;;;;5051282;28;21019;-71
2021/07/02 02:50:00;;;;;;;58.67;2.97;;;13.10;90.30;;;;;;5051268;28;20483;-71
2021/07/02 02:52:27;;;;;;;58.33;2.70;;;13.10;89.80;;;;;;5054064;28;20498;-70
2021/07/02 02:54:54;;;;;;;58.13;2.60;;;13.10;90.20;;;;;;5055154;28;20443;-71
2021/07/02 02:57:21;;;;;;;58.37;2.80;;;13.00;90.30;;;;;;5055148;28;20483;-71
2021/07/02 02:59:48;;;;;;;58.40;2.60;;;13.00;90.30;;;;;;5041980;28;20480;-70
2021/07/02 03:02:15;;;;;;;58.37;2.60;;;12.90;89.90;;;;;;5034548;28;20532;-71
2021/07/02 03:04:43;;;;;;;58.87;2.77;;;12.90;90.20;;;;;;5035152;28;20504;-71
2021/07/02 03:07:10;;;;;;;58.50;3.00;;;12.90;90.10;;;;;;5035060;28;20531;-71
2021/07/02 03:09:37;;;;;;;58.67;2.90;;;12.80;90.20;;;;;;5034861;28;20540;-71
2021/07/02 03:12:04;;;;;;;58.43;2.90;;;12.80;90.40;;;;;;5034552;28;20579;-70
2021/07/02 03:14:31;;;;;;;58.60;2.80;;;12.80;90.50;;;;;;5034698;28;20468;-70
2021/07/02 03:16:58;;;;;;;59.27;2.90;;;12.80;90.60;;;;;;5034890;28;20480;-70
2021/07/02 03:19:25;;;;;;;57.97;2.80;;;12.70;90.70;;;;;;5034957;28;20447;-71
2021/07/02 03:21:53;;;;;;;58.63;2.80;;;12.80;90.90;;;;;;5034436;28;20532;-70
2021/07/02 03:24:20;;;;;;;58.17;2.70;;;12.70;90.90;;;;;;5034374;28;20517;-70
2021/07/02 03:26:47;;;;;;;58.37;2.70;;;12.70;91.40;;;;;;5034626;28;21024;-71
2021/07/02 03:29:14;;;;;;;58.53;2.90;;;12.60;91.30;;;;;;5034294;28;20848;-70
2021/07/02 03:31:41;;;;;;;58.33;2.70;;;12.60;91.20;;;;;;5033045;28;20929;-70
2021/07/02 03:34:08;;;;;;;58.50;2.90;;;12.60;92.20;;;;;;5034537;28;20500;-71
2021/07/02 03:36:35;;;;;;;58.33;2.70;;;12.60;92.40;;;;;;5034347;28;20539;-70
2021/07/02 03:39:04;;;;;;;58.47;2.70;;;12.60;91.90;;;;;;5034506;28;20452;-71
2021/07/02 03:41:31;;;;;;;58.27;2.73;;;12.60;92.60;;;;;;5034079;28;20468;-70
2021/07/02 03:43:58;;;;;;;58.57;3.10;;;12.60;93.30;;;;;;5034077;28;20469;-71
2021/07/02 03:46:25;;;;;;;58.50;2.90;;;12.70;93.80;;;;;;5034345;28;20487;-70
2021/07/02 03:48:52;;;;;;;58.63;2.70;;;12.70;93.60;;;;;;5034014;28;20949;-71
2021/07/02 03:51:19;;;;;;;58.33;2.80;;;12.70;93.80;;;;;;5033807;28;20483;-70
2021/07/02 03:53:45;;;;;;;58.37;2.80;;;12.70;94.30;;;;;;5033926;28;20552;-70
2021/07/02 03:56:14;;;;;;;58.33;2.60;;;12.70;94.30;;;;;;5034010;28;20559;-70
2021/07/02 03:58:40;;;;;;;58.37;2.70;;;12.80;94.50;;;;;;5033762;28;20453;-71
2021/07/02 04:01:07;;;;;;;58.37;3.20;;;12.90;94.50;;;;;;5039627;28;20536;-70
2021/07/02 04:03:35;;;;;;;58.37;2.70;;;12.90;95.20;;;;;;5043195;28;20477;-70
2021/07/02 04:06:02;;;;;;;62.83;3.60;;;12.90;95.90;;;;;;5033843;28;20457;-70
2021/07/02 04:08:29;;;;;;;58.33;3.03;;;12.90;95.40;;;;;;5033901;28;20987;-70
2021/07/02 04:10:56;;;;;;;58.60;2.70;;;13.00;95.30;;;;;;5033346;28;20570;-70
2021/07/02 04:13:24;;;;;;;58.57;2.80;;;13.00;95.40;;;;;;5033374;28;20467;-70
2021/07/02 04:15:53;;;;;;;58.27;2.77;;;13.00;95.90;;;;;;5033910;28;20480;-70
2021/07/02 04:18:20;;;;;;;58.43;3.13;;;13.00;95.50;;;;;;5033587;28;20543;-70
2021/07/02 04:20:47;;;;;;;58.90;3.23;;;13.10;95.70;;;;;;5033540;28;20450;-70
2021/07/02 04:23:14;;;;;;;58.47;2.60;;;13.10;96.10;;;;;;5033018;28;20575;-70
2021/07/02 04:25:41;;;;;;;58.27;2.90;;;13.20;96.40;;;;;;5033360;28;20535;-70
2021/07/02 04:28:08;;;;;;;58.70;3.00;;;13.20;96.80;;;;;;5033536;28;20455;-70
2021/07/02 04:30:37;;;;;;;59.30;2.90;;;13.30;96.50;;;;;;5033409;28;20469;-70
2021/07/02 04:33:04;;;;;;;58.20;2.70;;;13.30;96.70;;;;;;5031675;28;20552;-70
2021/07/02 04:35:31;;;;;;;58.37;2.70;;;13.40;97.10;;;;;;5051643;28;20451;-71
2021/07/02 04:37:58;;;;;;;58.27;3.13;;;13.40;96.80;;;;;;5053073;28;20484;-71
2021/07/02 04:40:24;;;;;;;58.07;2.70;;;13.50;96.70;;;;;;5053045;28;20479;-70
2021/07/02 04:42:51;;;;;;;58.37;2.97;;;13.50;95.90;;;;;;5052827;28;20503;-70
2021/07/02 04:45:18;;;;;;;58.27;2.90;;;13.60;95.50;;;;;;5053082;28;20476;-71
2021/07/02 04:47:46;;;;;;;57.93;2.50;;;13.60;99.00;;;;;;5052949;28;20540;-71
2021/07/02 04:50:13;;;;;;;58.70;2.97;;;13.70;96.80;;;;;;5053120;28;20448;-71
2021/07/02 04:52:40;;;;;;;58.30;2.70;;;13.70;99.90;;;;;;5052493;28;20512;-71
2021/07/02 04:55:08;;;;;;;59.23;3.23;;;13.80;99.90;;;;;;5052925;28;20553;-70
2021/07/02 04:57:34;;;;;;;58.27;2.90;;;13.90;99.90;;;;;;5052944;28;20472;-70
2021/07/02 05:00:04;;;;;;;57.87;2.70;;;14.00;96.90;;;;;;5052875;28;20527;-70
2021/07/02 05:02:31;;;;;;;58.90;2.90;;;14.00;95.40;;;;;;5051183;28;20769;-70
2021/07/02 05:04:59;;;;;;;57.97;2.50;;;14.10;94.60;;;;;;5052456;28;20502;-71
2021/07/02 05:07:26;;;;;;;58.07;2.47;;;14.10;93.90;;;;;;5052803;28;20820;-70
2021/07/02 05:09:53;;;;;;;58.40;2.83;;;14.20;92.80;;;;;;5052686;28;20544;-70
2021/07/02 05:12:20;;;;;;;58.03;2.70;;;14.30;94.70;;;;;;5052149;28;20575;-71
2021/07/02 05:14:47;;;;;;;58.07;2.80;;;14.30;95.40;;;;;;5052255;28;20952;-71
2021/07/02 05:17:14;;;;;;;58.07;2.60;;;14.40;97.00;;;;;;5052443;28;20455;-70
2021/07/02 05:19:41;;;;;;;58.20;2.60;;;14.40;95.10;;;;;;5052317;28;20460;-71
2021/07/02 05:22:14;;;;;;;58.03;2.60;;;14.50;94.20;;;;;;5052052;28;20448;-70
2021/07/02 05:24:41;;;;;;;57.87;2.60;;;14.50;91.60;;;;;;5052455;28;20522;-71
2021/07/02 05:27:08;;;;;;;58.27;2.90;;;14.60;87.00;;;;;;5052169;28;20459;-70
2021/07/02 05:29:35;;;;;;;58.50;2.70;;;14.70;82.10;;;;;;5052401;28;20539;-71
2021/07/02 05:32:02;;;;;;;57.97;2.60;;;14.70;79.10;;;;;;5051910;28;20476;-71
2021/07/02 05:34:29;;;;;;;58.40;3.17;;;14.80;77.20;;;;;;5038424;28;20568;-71
2021/07/02 05:36:56;;;;;;;59.00;3.53;;;14.90;76.10;;;;;;5047210;28;20495;-70
2021/07/02 05:39:24;;;;;;;58.27;3.00;;;15.00;74.90;;;;;;5052190;28;20535;-71
2021/07/02 05:41:51;;;;;;;58.17;2.83;;;15.10;71.60;;;;;;5051838;28;20487;-70
2021/07/02 05:44:18;;;;;;;58.90;3.20;;;15.20;70.40;;;;;;5051955;28;20503;-71
2021/07/02 05:46:46;;;;;;;58.50;2.90;;;15.40;69.50;;;;;;5051706;28;20452;-71
2021/07/02 05:49:13;;;;;;;58.70;3.13;;;15.40;64.10;;;;;;5052021;28;20832;-71
2021/07/02 05:51:40;;;;;;;58.03;3.00;;;15.50;57.50;;;;;;5051625;28;20816;-70
2021/07/02 05:54:08;;;;;;;58.27;2.80;;;15.50;51.20;;;;;;5051892;28;20461;-71
2021/07/02 05:56:36;;;;;;;57.83;2.60;;;15.60;48.10;;;;;;5051828;28;20449;-71
2021/07/02 05:59:03;;;;;;;58.17;2.60;;;15.60;36.00;;;;;;5051850;28;20866;-71
2021/07/02 06:01:30;;;;;;;59.43;3.00;;;15.60;28.10;;;;;;5051260;28;20451;-71
2021/07/02 06:03:57;;;;;;;58.30;2.67;;;15.50;23.00;;;;;;5051548;28;20465;-71
2021/07/02 06:06:24;;;;;;;58.30;2.70;;;15.50;23.00;;;;;;5051801;28;21017;-71
2021/07/02 06:08:52;;;;;;;58.20;2.50;;;15.40;21.90;;;;;;5052091;28;20449;-71
2021/07/02 06:11:20;;;;;;;57.97;2.50;;;15.40;23.30;;;;;;5050505;28;20984;-71
2021/07/02 06:13:48;;;;;;;57.97;2.70;;;15.40;21.70;;;;;;5051306;28;20809;-71
2021/07/02 06:16:15;;;;;;;58.13;2.77;;;15.40;24.00;;;;;;5051726;28;20481;-70
2021/07/02 06:18:42;;;;;;;58.40;3.33;;;15.40;26.00;;;;;;5051758;28;20961;-71
2021/07/02 06:21:09;;;;;;;58.03;2.60;;;15.40;24.70;;;;;;5051377;28;20463;-70
2021/07/02 06:23:37;;;;;;;58.60;3.10;;;15.40;20.40;;;;;;5051248;28;20477;-71
2021/07/02 06:26:06;;;;;;;58.27;2.80;;;15.40;19.40;;;;;;5052489;28;20464;-70
2021/07/02 06:28:34;;;;;;;58.13;2.53;;;15.30;21.00;;;;;;5055701;28;20975;-71
2021/07/02 06:31:04;;;;;;;58.27;2.50;;;15.30;24.00;;;;;;5055638;28;20454;-70
2021/07/02 06:33:31;;;;;;;57.97;2.67;;;15.30;25.40;;;;;;5055436;28;20871;-70
2021/07/02 06:35:58;;;;;;;58.43;2.70;;;15.40;22.90;;;;;;5055710;28;20476;-70
2021/07/02 06:38:24;;;;;;;58.87;3.20;;;15.50;23.50;;;;;;5055420;28;20537;-70
2021/07/02 06:40:52;;;;;;;58.17;2.60;;;15.50;21.40;;;;;;5055387;28;20537;-71
2021/07/02 06:43:19;;;;;;;58.27;2.80;;;15.60;12.90;;;;;;5055234;28;20464;-71
2021/07/02 06:45:46;;;;;;;58.27;2.60;;;15.60;5.30;;;;;;5055437;28;20879;-71
2021/07/02 06:48:15;;;;;;;58.50;3.63;;;15.70;3.90;;;;;;5055416;28;20876;-70
2021/07/02 06:50:45;;;;;;;58.07;2.60;;;15.70;4.50;;;;;;5055251;28;20445;-70
2021/07/02 06:53:12;;;;;;;58.47;2.70;;;15.80;6.70;;;;;;5054861;28;20531;-71
2021/07/02 06:55:40;;;;;;;59.37;2.80;;;15.80;2.30;;;;;;5055465;28;20477;-70
2021/07/02 06:58:09;;;;;;;57.97;2.60;;;15.90;1.00;;;;;;5055179;28;20445;-71
2021/07/02 07:00:38;;;;;;;58.17;2.70;;;16.00;1.00;;;;;;5055140;28;20451;-71
2021/07/02 07:03:05;;;;;;;58.03;2.43;;;16.10;1.00;;;;;;5054818;28;20826;-71
2021/07/02 07:05:34;;;;;;;58.17;2.60;;;16.20;1.00;;;;;;5055438;28;20455;-70
2021/07/02 07:08:02;;;;;;;58.20;3.07;;;16.30;1.00;;;;;;5054926;28;20538;-71
2021/07/02 07:10:30;;;;;;;58.10;2.90;;;16.40;1.00;;;;;;5055043;28;20451;-70
2021/07/02 07:13:09;;;;;;;58.03;2.60;;;16.60;1.00;;;;;;5054705;28;20521;-72
2021/07/02 07:15:37;;;;;;;58.60;3.30;;;16.70;1.00;;;;;;5058081;28;20458;-71
2021/07/02 07:18:04;;;;;;;57.70;2.63;;;16.90;1.00;;;;;;5057567;28;20454;-71
2021/07/02 07:20:32;;;;;;;58.47;2.73;;;17.10;1.00;;;;;;5057385;28;20454;-71
2021/07/02 07:23:00;;;;;;;58.20;2.70;;;17.30;1.00;;;;;;5054950;28;20520;-71
2021/07/02 07:25:27;;;;;;;57.77;2.50;;;17.40;1.00;;;;;;5054885;28;20455;-71
2021/07/02 07:27:54;;;;;;;58.00;2.40;;;17.60;1.00;;;;;;5054513;28;20534;-72
2021/07/02 07:30:21;;;;;;;57.60;2.77;;;18.00;1.00;;;;;;5054726;28;20724;-72
2021/07/02 07:32:50;;;;;;;58.50;2.67;;;18.20;1.00;;;;;;5054013;28;20591;-72
2021/07/02 07:35:21;;;;;;;58.20;2.60;;;18.40;1.00;;;;;;5054185;28;20520;-72
2021/07/02 07:37:52;;;;;;;57.93;2.80;;;18.40;1.00;;;;;;5052880;28;20493;-72
2021/07/02 07:40:20;;;;;;;58.27;2.57;;;18.40;1.00;;;;;;5054180;28;20455;-70
2021/07/02 07:42:47;;;;;;;58.17;2.50;;;18.40;1.00;;;;;;5053770;28;20569;-72
2021/07/02 07:45:14;;;;;;;57.70;2.53;;;18.60;1.00;;;;;;5054189;28;20534;-71
2021/07/02 07:47:41;;;;;;;57.93;2.50;;;19.00;1.00;;;;;;5054012;28;20458;-71
2021/07/02 07:50:09;;;;;;;58.07;3.07;;;19.10;1.00;;;;;;5054146;28;20882;-71
2021/07/02 07:52:43;;;;;;;57.87;2.47;;;19.10;1.00;;;;;;5053603;28;20578;-70
2021/07/02 07:55:11;;;;;;;58.70;3.47;;;18.90;1.00;;;;;;5053849;28;20478;-71
2021/07/02 07:57:44;;;;;;;59.03;2.60;;;18.70;1.00;;;;;;5053873;28;20445;-71
2021/07/02 08:00:11;;;;;;;57.97;2.67;;;18.60;1.00;;;;;;5053887;28;20536;-71
2021/07/02 08:02:38;;;;;;;57.53;2.90;;;18.60;1.00;;;;;;5053604;28;20440;-71
2021/07/02 08:05:06;;;;;;;57.87;2.60;;;18.70;1.00;;;;;;5053775;28;20499;-71
2021/07/02 08:07:37;;;;;;;58.17;3.00;;;18.90;1.00;;;;;;5053599;28;20929;-72
2021/07/02 08:10:06;;;;;;;57.77;2.50;;;19.10;1.00;;;;;;5053596;28;20828;-72
2021/07/02 08:12:33;;;;;;;58.40;2.77;;;19.20;1.00;;;;;;5052911;28;20529;-71
2021/07/02 08:15:01;;;;;;;57.87;2.40;;;19.20;1.00;;;;;;5053415;28;20451;-71
2021/07/02 08:17:30;;;;;;;58.07;2.50;;;19.40;1.00;;;;;;5053844;28;20540;-71
2021/07/02 08:19:56;;;;;;;57.80;2.20;;;19.70;1.00;;;;;;5053276;28;20460;-71
2021/07/02 08:22:23;;;;;;;57.90;2.30;;;19.80;1.00;;;;;;5052859;28;20510;-71
2021/07/02 08:24:51;;;;;;;57.33;2.20;;;19.90;1.00;;;;;;5053145;28;21054;-71
2021/07/02 08:27:18;;;;;;;57.93;2.30;;;19.90;1.00;;;;;;5053158;28;20487;-71
2021/07/02 08:29:44;;;;;;;57.77;2.43;;;19.80;1.00;;;;;;5053316;28;20454;-71
2021/07/02 08:32:13;;;;;;;57.63;2.40;;;19.80;1.00;;;;;;5052899;28;20572;-71
2021/07/02 08:34:40;;;;;;;58.07;2.40;;;19.70;1.00;;;;;;5052928;28;20475;-70
2021/07/02 08:37:06;;;;;;;57.83;2.20;;;19.70;1.00;;;;;;5053115;28;20543;-71
2021/07/02 08:39:33;;;;;;;57.97;2.60;;;19.60;1.00;;;;;;5052925;28;20455;-71
2021/07/02 08:42:01;;;;;;;58.20;2.40;;;19.50;1.00;;;;;;5052623;28;20797;-71
2021/07/02 08:44:28;;;;;;;57.57;2.43;;;19.40;1.00;;;;;;5052807;28;21049;-70
2021/07/02 08:46:55;;;;;;;58.10;2.80;;;19.40;1.00;;;;;;5053198;28;20845;-71
2021/07/02 08:49:23;;;;;;;57.60;2.93;;;19.40;1.00;;;;;;5052646;28;20505;-71
2021/07/02 08:51:50;;;;;;;58.27;2.80;;;19.40;1.00;;;;;;5052520;28;20527;-71
2021/07/02 08:54:17;;;;;;;59.03;3.23;;;19.50;1.00;;;;;;5052471;28;20547;-70
2021/07/02 08:56:56;;;;;;;57.43;2.43;;;19.50;1.00;;;;;;5052864;28;20530;-70
2021/07/02 08:59:24;;;;;;;58.00;2.40;;;19.60;1.00;;;;;;5052642;28;21093;-70
2021/07/02 09:01:51;;;;;;;57.53;2.50;;;19.80;1.00;;;;;;5052487;28;20457;-71
2021/07/02 09:04:20;;;;;;;57.90;2.63;;;19.90;1.00;;;;;;5052500;28;20839;-70
2021/07/02 09:07:02;;;;;;;57.87;3.03;;;20.00;1.00;;;;;;5052325;28;20486;-71
2021/07/02 09:09:47;;;;;;;58.50;2.87;;;20.20;1.00;;;;;;5052639;28;20447;-71
2021/07/02 09:12:15;;;;;;;57.77;2.30;;;20.30;1.00;;;;;;5052195;28;20929;-71
2021/07/02 09:14:59;;;;;;;57.63;2.33;;;20.40;1.00;;;;;;5052249;28;20548;-69
2021/07/02 09:17:26;;;;;;;57.47;2.67;;;20.70;1.00;;;;;;5052780;28;20473;-71
2021/07/02 09:20:09;;;;;;;58.20;2.70;;;21.00;1.00;;;;;;5052539;28;20505;-71
2021/07/02 09:22:46;;;;;;;58.07;2.37;;;21.40;1.00;;;;;;5050057;28;20462;-71
2021/07/02 09:25:21;;;;;;;57.83;2.23;;;21.50;1.00;;;;;;5052269;28;20450;-71
2021/07/02 09:27:50;;;;;;;57.63;2.63;;;21.30;1.00;;;;;;5052107;28;20507;-71
2021/07/02 09:30:19;;;;;;;57.97;2.40;;;21.10;1.00;;;;;;5052228;28;20870;-71
2021/07/02 09:32:48;;;;;;;57.77;2.40;;;21.00;1.00;;;;;;5051776;28;20482;-70
2021/07/02 09:35:16;;;;;;;58.60;2.80;;;21.10;1.00;;;;;;5052238;28;21014;-71
2021/07/02 09:37:48;;;;;;;58.07;2.80;;;21.30;1.00;;;;;;5052007;28;20441;-71
2021/07/02 09:40:18;;;;;;;57.87;2.50;;;21.30;1.00;;;;;;5051837;28;20468;-70
2021/07/02 09:42:46;;;;;;;58.30;3.50;;;21.40;1.00;;;;;;5051526;28;20451;-71
2021/07/02 09:45:14;;;;;;;58.23;2.70;;;21.50;1.00;;;;;;5051927;28;20457;-71
2021/07/02 09:47:44;;;;;;;58.00;2.80;;;21.50;1.00;;;;;;5051908;28;20480;-70
2021/07/02 09:50:20;;;;;;;58.07;2.33;;;21.50;1.00;;;;;;5051861;28;20541;-71
2021/07/02 09:52:50;;;;;;;57.57;2.80;;;21.60;1.00;;;;;;5051209;28;20486;-71
2021/07/02 09:55:19;;;;;;;58.00;3.00;;;21.80;1.00;;;;;;5051766;28;20440;-71
2021/07/02 09:57:46;;;;;;;57.77;2.37;;;21.80;1.00;;;;;;5051864;28;20493;-71
2021/07/02 10:00:15;;;;;;;57.77;2.60;;;21.80;1.00;;;;;;5051330;28;20863;-71
2021/07/02 10:02:53;;;;;;;58.50;2.80;;;21.80;1.00;;;;;;5051131;28;20533;-73
2021/07/02 10:05:20;;;;;;;58.17;2.60;;;21.80;1.00;;;;;;5051638;28;20444;-71
2021/07/02 10:08:01;;;;;;;58.60;2.97;;;21.80;1.00;;;;;;5051823;28;20455;-71
2021/07/02 10:10:29;;;;;;;57.77;2.40;;;22.00;1.00;;;;;;5051680;28;20541;-72
2021/07/02 10:12:57;;;;;;;59.90;3.30;;;22.10;1.00;;;;;;5051075;28;20498;-72
2021/07/02 10:15:25;;;;;;;57.33;2.30;;;22.20;1.00;;;;;;5051555;28;20447;-72
2021/07/02 10:17:53;;;;;;;57.93;2.30;;;22.30;1.00;;;;;;5051565;28;20491;-71
2021/07/02 10:20:21;;;;;;;58.20;2.63;;;22.60;1.00;;;;;;5051655;28;20532;-71
2021/07/02 10:22:49;;;;;;;57.97;2.80;;;22.80;1.00;;;;;;5051029;28;20491;-72
2021/07/02 10:25:20;;;;;;;58.90;2.60;;;23.10;1.00;;;;;;5051584;28;20535;-69
2021/07/02 10:27:47;;;;;;;58.07;2.50;;;23.50;1.00;;;;;;5051530;28;20591;-69
2021/07/02 10:30:15;;;;;;;58.80;4.03;;;24.60;1.00;;;;;;5051296;28;20551;-70
2021/07/02 10:32:42;;;;;;;57.70;2.20;;;26.00;1.00;;;;;;5051156;28;20480;-69
2021/07/02 10:35:14;;;;;;;58.40;2.77;;;27.40;1.00;;;;;;5051467;28;20536;-70
2021/07/02 10:37:43;;;;;;;58.00;2.50;;;28.60;1.00;;;;;;5051397;28;21056;-70
2021/07/02 10:40:34;;;;;;;57.70;2.10;;;29.40;1.00;;;;;;5051452;28;20880;-70
2021/07/02 10:43:09;;;;;;;58.03;2.40;;;30.20;1.00;;;;;;5051240;28;20494;-70
2021/07/02 10:45:36;;;;;;;58.00;2.33;;;30.90;1.00;;;;;;5051471;28;20487;-71
2021/07/02 10:48:03;;;;;;;57.77;2.33;;;31.30;1.00;;;;;;5051358;28;21012;-70
2021/07/02 10:50:43;;;;;;;57.87;2.80;;;31.60;1.00;;;;;;5051228;28;20454;-71
2021/07/02 10:53:30;;;;;;;57.77;2.80;;;32.20;1.00;;;;;;5050672;28;20494;-71
2021/07/02 10:55:59;;;;;;;57.90;2.40;;;32.80;1.00;;;;;;5051120;28;20778;-71
2021/07/02 10:58:52;;;;;;;57.27;2.13;;;33.20;1.00;;;;;;5051483;28;20456;-71
2021/07/02 11:01:19;;;;;;;57.37;2.23;;;33.40;1.00;;;;;;5051535;28;20543;-71
2021/07/02 11:03:48;;;;;;;57.30;2.33;;;33.50;1.00;;;;;;5052357;28;20548;-69
2021/07/02 11:06:39;;;;;;;57.30;2.30;;;33.70;1.00;;;;;;5051423;28;20785;-70
2021/07/02 11:09:06;;;;;;;58.03;2.53;;;34.20;1.00;;;;;;5051204;28;20852;-68
2021/07/02 11:12:12;;;;;;;57.77;2.47;;;34.40;1.00;;;;;;5051027;28;20455;-69
2021/07/02 11:15:14;;;;;;;57.20;2.00;;;34.70;1.00;;;;;;5045846;28;20492;-69
2021/07/02 11:17:42;;;;;;;57.50;2.33;;;34.60;1.00;;;;;;4991809;28;20566;-69
2021/07/02 11:20:30;;;;;;;57.90;2.20;;;34.10;1.00;;;;;;5041984;28;20463;-69
2021/07/02 11:23:14;;;;;;;58.00;2.73;;;34.30;1.00;;;;;;5054070;28;20477;-69
2021/07/02 11:25:46;;;;;;;57.23;1.90;;;34.90;1.00;;;;;;5052827;28;20559;-69
2021/07/02 11:28:16;;;;;;;57.37;2.30;;;34.70;1.00;;;;;;5054204;28;20811;-69
2021/07/02 11:30:47;;;;;;;57.10;2.10;;;34.60;1.00;;;;;;5053871;28;20448;-69
2021/07/02 11:33:19;;;;;;;57.33;2.40;;;34.40;1.00;;;;;;5053459;28;20991;-69
2021/07/02 11:35:48;;;;;;;57.67;2.57;;;35.10;1.00;;;;;;5053457;28;20458;-69
2021/07/02 11:38:17;;;;;;;57.63;2.40;;;35.10;1.00;;;;;;5052971;28;20459;-69
2021/07/02 11:40:48;;;;;;;57.17;2.40;;;35.30;1.00;;;;;;5053767;28;20949;-68
2021/07/02 11:43:16;;;;;;;57.90;2.53;;;35.30;1.00;;;;;;5052700;28;21052;-69
2021/07/02 11:45:46;;;;;;;57.40;2.23;;;35.20;1.00;;;;;;5053794;28;20452;-69
2021/07/02 11:48:29;;;;;;;57.70;2.87;;;35.40;1.00;;;;;;5053469;28;20552;-69
2021/07/02 11:50:58;;;;;;;57.70;2.50;;;35.90;1.00;;;;;;5053728;28;21042;-69
2021/07/02 11:53:30;;;;;;;57.27;2.50;;;36.20;1.00;;;;;;5053345;28;20579;-69
2021/07/02 11:56:01;;;;;;;57.67;2.60;;;36.00;1.00;;;;;;5053627;28;20955;-68
2021/07/02 11:58:29;;;;;;;58.10;2.50;;;35.70;1.00;;;;;;5053895;28;20847;-70
2021/07/02 12:00:59;;;;;;;58.00;2.50;;;35.70;1.00;;;;;;5052777;28;20853;-70
2021/07/02 12:03:26;;;;;;;57.13;2.40;;;35.50;1.00;;;;;;5053447;28;20517;-69
2021/07/02 12:05:57;;;;;;;58.17;2.47;;;34.70;1.00;;;;;;5053679;28;20548;-70
2021/07/02 12:08:26;;;;;;;58.10;2.90;;;34.30;1.00;;;;;;5053955;28;20794;-69
2021/07/02 12:11:01;;;;;;;57.27;2.07;;;34.00;1.00;;;;;;5053559;28;21011;-69
2021/07/02 12:13:29;;;;;;;57.90;2.70;;;33.60;1.00;;;;;;5053214;28;20567;-69
2021/07/02 12:16:06;;;;;;;57.10;2.10;;;33.00;1.00;;;;;;5053615;28;20852;-69
2021/07/02 12:18:34;;;;;;;57.40;2.03;;;33.20;1.00;;;;;;5053297;28;20999;-69
2021/07/02 12:21:04;;;;;;;56.93;1.97;;;33.40;1.00;;;;;;5053572;28;20490;-70
2021/07/02 12:23:33;;;;;;;58.23;2.13;;;33.70;1.00;;;;;;5052326;28;20559;-70
2021/07/02 12:26:19;;;;;;;57.47;2.20;;;34.20;1.00;;;;;;5053366;28;20539;-69
2021/07/02 12:29:08;;;;;;;57.00;2.30;;;34.30;1.00;;;;;;5053402;28;20817;-69
2021/07/02 12:31:42;;;;;;;57.37;2.50;;;34.00;1.00;;;;;;5053156;28;21103;-70
2021/07/02 12:34:16;;;;;;;57.70;2.37;;;33.90;1.00;;;;;;5053244;28;20512;-70
2021/07/02 12:36:55;;;;;;;57.90;2.50;;;34.30;1.00;;;;;;5053068;28;20945;-69
2021/07/02 12:39:26;;;;;;;57.20;2.10;;;35.10;1.00;;;;;;5052912;28;20451;-70
2021/07/02 12:41:53;;;;;;;57.17;2.70;;;35.80;1.00;;;;;;5052879;28;20440;-70
2021/07/02 12:44:22;;;;;;;59.20;2.30;;;36.60;1.00;;;;;;5053148;28;20548;-70
2021/07/02 12:46:52;;;;;;;57.73;2.90;;;37.00;1.00;;;;;;5052926;28;20528;-69
2021/07/02 12:49:31;;;;;;;57.27;2.53;;;37.40;1.00;;;;;;5052874;28;20527;-69
2021/07/02 12:55:04;;;;;;;57.27;2.10;;;37.70;1.00;;;;;;5052939;28;20474;-71
2021/07/02 12:57:33;;;;;;;57.47;2.47;;;37.80;1.00;;;;;;5052660;28;20487;-70